createdAt,value
2022-12-23T00:01:37.928Z,31.60
2022-12-23T00:04:15.075Z,32.60
2022-12-23T00:06:51.659Z,34.70
2022-12-23T00:09:29.093Z,32.20
2022-12-23T00:12:22.980Z,32.80
2022-12-23T00:15:08.720Z,30.50
2022-12-23T00:17:48.657Z,30.70
2022-12-23T00:20:26.201Z,31.20
2022-12-23T00:23:09.351Z,32.80
2022-12-23T00:25:50.061Z,34.20
2022-12-23T00:28:28.484Z,33.00
2022-12-23T00:31:09.213Z,32.50
2022-12-23T00:33:47.329Z,32.60
2022-12-23T00:36:27.736Z,29.00
2022-12-23T00:39:22.576Z,27.60
2022-12-23T00:42:30.603Z,29.70
2022-12-23T00:45:18.007Z,32.00
2022-12-23T00:48:11.788Z,30.50
2022-12-23T00:50:47.855Z,33.20
2022-12-23T00:53:24.725Z,35.70
2022-12-23T00:56:01.245Z,33.90
2022-12-23T00:58:38.503Z,31.00
2022-12-23T01:01:47.021Z,29.80
2022-12-23T01:04:41.191Z,29.40
2022-12-23T01:07:17.999Z,29.00
2022-12-23T01:09:54.671Z,27.60
2022-12-23T01:12:31.649Z,33.00
2022-12-23T01:15:10.581Z,33.00
2022-12-23T01:17:47.933Z,33.90
2022-12-23T01:20:24.435Z,30.20
2022-12-23T01:23:01.278Z,30.20
2022-12-23T01:25:38.189Z,29.40
2022-12-23T01:28:14.834Z,31.00
2022-12-23T01:30:51.364Z,30.60
2022-12-23T01:33:28.642Z,29.40
2022-12-23T01:36:11.093Z,33.20
2022-12-23T01:38:47.902Z,31.10
2022-12-23T01:41:45.772Z,31.40
2022-12-23T01:45:16.480Z,32.60
2022-12-23T01:47:59.740Z,30.00
2022-12-23T01:50:42.841Z,30.10
2022-12-23T01:53:26.204Z,31.30
2022-12-23T01:56:07.619Z,30.90
2022-12-23T01:58:46.775Z,30.70
2022-12-23T02:01:41.251Z,29.30
2022-12-23T02:04:23.097Z,30.50
2022-12-23T02:07:16.751Z,28.20
2022-12-23T02:09:53.301Z,27.30
2022-12-23T02:12:51.817Z,27.30
2022-12-23T02:16:01.460Z,29.50
2022-12-23T02:19:16.374Z,30.20
2022-12-23T02:22:21.777Z,27.00
2022-12-23T02:25:40.325Z,26.50
2022-12-23T02:28:48.090Z,25.30
2022-12-23T02:31:37.207Z,25.40
2022-12-23T02:34:22.869Z,27.30
2022-12-23T02:37:07.299Z,25.70
2022-12-23T02:39:54.383Z,25.20
2022-12-23T02:42:39.547Z,25.20
2022-12-23T02:45:23.802Z,23.30
2022-12-23T02:48:07.559Z,22.80
2022-12-23T02:50:47.348Z,24.70
2022-12-23T02:53:33.997Z,26.30
2022-12-23T02:56:15.394Z,26.10
2022-12-23T02:58:56.788Z,25.30
2022-12-23T03:01:37.754Z,25.70
2022-12-23T03:04:14.388Z,24.30
2022-12-23T03:06:55.269Z,25.80
2022-12-23T03:09:44.885Z,25.10
2022-12-23T03:12:41.430Z,25.20
2022-12-23T03:15:35.950Z,28.60
2022-12-23T03:18:24.780Z,28.10
2022-12-23T03:21:08.135Z,27.90
2022-12-23T03:23:55.683Z,26.40
2022-12-23T03:26:42.435Z,25.20
2022-12-23T03:29:28.169Z,24.80
2022-12-23T03:32:10.579Z,26.20
2022-12-23T03:34:53.085Z,27.20
2022-12-23T03:37:34.809Z,27.80
2022-12-23T03:40:20.804Z,25.60
2022-12-23T03:43:04.838Z,26.60
2022-12-23T03:45:47.696Z,27.00
2022-12-23T03:48:31.021Z,26.10
2022-12-23T03:51:14.937Z,25.30
2022-12-23T03:53:59.395Z,27.10
2022-12-23T03:56:43.021Z,26.40
2022-12-23T03:59:25.783Z,24.10
2022-12-23T04:02:14.124Z,25.00
2022-12-23T04:05:16.071Z,26.00
2022-12-23T04:08:01.321Z,25.80
2022-12-23T04:10:38.450Z,29.10
2022-12-23T04:13:15.107Z,29.70
2022-12-23T04:15:52.666Z,31.30
2022-12-23T04:18:28.751Z,28.10
2022-12-23T04:21:06.048Z,28.00
2022-12-23T04:23:42.902Z,28.30
2022-12-23T04:26:19.707Z,25.80
2022-12-23T04:28:56.605Z,24.40
2022-12-23T04:31:33.053Z,28.00
2022-12-23T04:34:10.659Z,26.00
2022-12-23T04:36:47.356Z,26.60
2022-12-23T04:39:24.746Z,25.30
2022-12-23T04:42:01.485Z,26.40
2022-12-23T04:44:38.410Z,25.50
2022-12-23T04:47:14.846Z,24.90
2022-12-23T04:49:51.957Z,24.70
2022-12-23T04:52:29.157Z,26.30
2022-12-23T04:55:05.980Z,27.10
2022-12-23T04:57:42.899Z,29.10
2022-12-23T05:00:26.110Z,25.20
2022-12-23T05:03:03.576Z,25.50
2022-12-23T05:05:45.405Z,24.90
2022-12-23T05:08:23.307Z,24.80
2022-12-23T05:10:59.898Z,26.70
2022-12-23T05:13:36.837Z,28.60
2022-12-23T05:16:16.764Z,26.10
2022-12-23T05:18:53.328Z,26.10
2022-12-23T05:21:30.042Z,25.70
2022-12-23T05:24:08.958Z,26.40
2022-12-23T05:26:48.082Z,25.80
2022-12-23T05:29:24.939Z,26.00
2022-12-23T05:32:01.764Z,28.30
2022-12-23T05:34:38.411Z,27.90
2022-12-23T05:37:15.193Z,27.30
2022-12-23T05:39:52.126Z,28.60
2022-12-23T05:42:29.145Z,27.10
2022-12-23T05:45:06.855Z,27.50
2022-12-23T05:47:43.386Z,27.40
2022-12-23T05:50:22.130Z,27.90
2022-12-23T05:52:59.245Z,27.60
2022-12-23T05:55:35.572Z,27.50
2022-12-23T05:58:12.438Z,28.40
2022-12-23T06:00:49.615Z,27.10
2022-12-23T06:03:27.114Z,27.60
2022-12-23T06:06:04.601Z,24.60
2022-12-23T06:08:42.377Z,25.60
2022-12-23T06:11:18.958Z,27.00
2022-12-23T06:13:55.771Z,28.50
2022-12-23T06:16:32.601Z,28.60
2022-12-23T06:19:10.997Z,29.70
2022-12-23T06:21:47.037Z,27.70
2022-12-23T06:24:23.529Z,27.80
2022-12-23T06:26:59.804Z,27.10
2022-12-23T06:29:36.239Z,27.60
2022-12-23T06:32:15.321Z,26.10
2022-12-23T06:34:53.684Z,28.90
2022-12-23T06:37:30.075Z,27.40
2022-12-23T06:40:06.871Z,29.10
2022-12-23T06:42:42.959Z,27.60
2022-12-23T06:45:21.103Z,27.40
2022-12-23T06:47:57.375Z,26.60
2022-12-23T06:50:33.327Z,27.60
2022-12-23T06:53:09.669Z,26.80
2022-12-23T06:55:46.115Z,27.80
2022-12-23T06:58:22.550Z,27.70
2022-12-23T07:00:59.560Z,27.50
2022-12-23T07:03:36.124Z,26.80
2022-12-23T07:06:14.907Z,25.70
2022-12-23T07:08:51.185Z,25.00
2022-12-23T07:11:28.388Z,25.60
2022-12-23T07:14:05.158Z,25.40
2022-12-23T07:16:42.798Z,27.90
2022-12-23T07:19:20.143Z,29.30
2022-12-23T07:21:56.923Z,26.80
2022-12-23T07:24:34.341Z,28.30
2022-12-23T07:27:11.873Z,27.10
2022-12-23T07:29:48.514Z,27.20
2022-12-23T07:32:25.742Z,26.80
2022-12-23T07:35:02.241Z,27.40
2022-12-23T07:37:39.019Z,26.10
2022-12-23T07:40:20.337Z,27.70
2022-12-23T07:43:00.084Z,27.10
2022-12-23T07:45:37.635Z,26.80
2022-12-23T07:48:15.043Z,25.90
2022-12-23T07:50:51.536Z,22.90
2022-12-23T07:53:28.842Z,22.00
2022-12-23T07:56:06.689Z,22.80
2022-12-23T07:58:43.803Z,22.10
2022-12-23T08:01:20.388Z,21.60
2022-12-23T08:03:57.013Z,21.70
2022-12-23T08:06:34.226Z,20.70
2022-12-23T08:09:12.068Z,19.90
2022-12-23T08:11:48.480Z,19.50
2022-12-23T08:14:25.643Z,19.20
2022-12-23T08:17:02.142Z,18.40
2022-12-23T08:19:39.044Z,17.30
2022-12-23T08:22:14.975Z,18.50
2022-12-23T08:24:52.835Z,17.90
2022-12-23T08:27:30.219Z,17.50
2022-12-23T08:30:07.868Z,17.60
2022-12-23T08:32:44.583Z,17.30
2022-12-23T08:35:21.929Z,18.50
2022-12-23T08:37:59.233Z,18.30
2022-12-23T08:40:36.036Z,19.50
2022-12-23T08:43:12.548Z,20.60
2022-12-23T08:45:49.803Z,20.20
2022-12-23T08:48:26.773Z,19.90
2022-12-23T08:51:08.839Z,19.40
2022-12-23T08:53:46.756Z,18.80
2022-12-23T08:56:26.883Z,19.50
2022-12-23T08:59:03.323Z,18.70
2022-12-23T09:01:41.522Z,20.40
2022-12-23T09:04:18.600Z,20.60
2022-12-23T09:06:54.001Z,20.20
2022-12-23T09:09:29.848Z,19.50
2022-12-23T09:12:07.220Z,21.10
2022-12-23T09:14:43.672Z,18.80
2022-12-23T09:17:20.111Z,19.80
2022-12-23T09:19:56.923Z,20.60
2022-12-23T09:22:34.775Z,19.70
2022-12-23T09:25:14.385Z,19.80
2022-12-23T09:27:51.278Z,20.40
2022-12-23T09:30:28.010Z,21.90
2022-12-23T09:33:04.614Z,20.30
2022-12-23T09:35:40.819Z,21.80
2022-12-23T09:38:17.076Z,20.60
2022-12-23T09:40:53.689Z,20.90
2022-12-23T09:43:45.315Z,20.90
2022-12-23T09:46:27.846Z,20.00
2022-12-23T09:49:12.858Z,20.40
2022-12-23T09:51:49.547Z,19.70
2022-12-23T09:54:29.133Z,21.30
2022-12-23T09:57:12.668Z,22.40
2022-12-23T10:00:08.471Z,24.40
2022-12-23T10:03:23.204Z,24.60
2022-12-23T10:06:11.663Z,25.20
2022-12-23T10:08:55.807Z,22.70
2022-12-23T10:11:39.501Z,26.80
2022-12-23T10:14:25.456Z,24.40
2022-12-23T10:17:07.354Z,23.20
2022-12-23T10:19:49.394Z,26.80
2022-12-23T10:22:35.611Z,30.00
2022-12-23T10:25:19.801Z,30.50
2022-12-23T10:27:55.891Z,31.60
2022-12-23T10:31:05.696Z,33.50
2022-12-23T10:33:50.324Z,31.60
2022-12-23T10:36:42.161Z,30.10
2022-12-23T10:39:30.302Z,28.00
2022-12-23T10:42:23.527Z,28.50
2022-12-23T10:45:30.873Z,27.50
2022-12-23T10:48:28.959Z,27.10
2022-12-23T10:51:12.517Z,28.10
2022-12-23T10:53:54.502Z,29.30
2022-12-23T10:56:33.616Z,31.60
2022-12-23T10:59:14.528Z,31.00
2022-12-23T11:02:00.340Z,30.40
2022-12-23T11:04:41.694Z,31.20
2022-12-23T11:10:28.732Z,27.40
2022-12-23T11:13:05.817Z,26.60
2022-12-23T11:15:44.719Z,29.50
2022-12-23T11:18:26.210Z,27.00
2022-12-23T11:21:19.552Z,27.40
2022-12-23T11:24:20.058Z,26.10
2022-12-23T11:27:05.571Z,26.20
2022-12-23T11:29:48.351Z,27.30
2022-12-23T11:32:28.868Z,28.60
2022-12-23T11:35:05.507Z,26.40
2022-12-23T11:37:46.703Z,26.80
2022-12-23T11:40:32.227Z,26.90
2022-12-23T11:43:16.880Z,23.50
2022-12-23T11:46:28.695Z,25.50
2022-12-23T11:49:34.843Z,25.30
2022-12-23T11:52:20.175Z,24.30
2022-12-23T11:54:59.996Z,23.40
2022-12-23T11:57:45.283Z,23.40
2022-12-23T12:00:32.595Z,24.40
2022-12-23T12:03:18.642Z,22.10
2022-12-23T12:06:00.927Z,22.90
2022-12-23T12:08:42.832Z,23.50
2022-12-23T12:11:28.426Z,23.40
2022-12-23T12:14:09.245Z,23.40
2022-12-23T12:17:01.615Z,23.70
2022-12-23T12:19:49.921Z,24.00
2022-12-23T12:22:42.736Z,23.30
2022-12-23T12:25:39.561Z,22.40
2022-12-23T12:28:23.616Z,23.70
2022-12-23T12:31:14.564Z,22.30
2022-12-23T12:34:02.250Z,21.20
2022-12-23T12:36:51.079Z,21.30
2022-12-23T12:39:36.792Z,21.60
2022-12-23T12:42:23.756Z,20.40
2022-12-23T12:45:12.806Z,25.10
2022-12-23T12:48:16.005Z,25.00
2022-12-23T12:51:08.084Z,23.90
2022-12-23T12:54:02.743Z,22.90
2022-12-23T12:56:49.570Z,21.40
2022-12-23T12:59:29.165Z,20.50
2022-12-23T13:02:47.921Z,20.30
2022-12-23T13:05:54.463Z,18.80
2022-12-23T13:09:04.772Z,18.60
2022-12-23T13:11:52.832Z,20.30
2022-12-23T13:14:46.675Z,23.30
2022-12-23T13:17:28.988Z,23.20
2022-12-23T13:20:17.806Z,21.20
2022-12-23T13:23:26.937Z,21.50
2022-12-23T13:26:12.873Z,22.30
2022-12-23T13:28:59.074Z,21.90
2022-12-23T13:31:51.127Z,22.00
2022-12-23T13:34:44.039Z,20.00
2022-12-23T13:37:35.987Z,19.60
2022-12-23T13:40:33.604Z,19.00
2022-12-23T13:43:18.763Z,19.00
2022-12-23T13:45:58.191Z,18.60
2022-12-23T13:48:50.619Z,17.60
2022-12-23T13:51:36.645Z,18.50
2022-12-23T13:54:30.558Z,16.80
2022-12-23T17:33:36.872Z,28.40
2022-12-23T17:36:14.882Z,29.60
2022-12-23T17:38:51.503Z,26.20
2022-12-23T17:41:33.030Z,25.20
2022-12-23T17:44:10.553Z,25.40
2022-12-23T17:46:46.769Z,25.50
2022-12-23T17:49:22.598Z,24.30
2022-12-23T17:51:59.260Z,25.40
2022-12-23T17:54:36.551Z,26.30
2022-12-23T17:57:23.080Z,29.20
2022-12-23T18:00:01.406Z,28.30
2022-12-23T18:02:38.804Z,26.70
2022-12-23T18:05:25.865Z,25.40
2022-12-23T18:08:06.365Z,22.80
2022-12-23T18:10:44.609Z,24.00
2022-12-23T18:13:24.253Z,25.60
2022-12-23T18:16:00.349Z,26.50
2022-12-23T18:18:45.895Z,26.30
2022-12-23T18:21:29.332Z,25.80
2022-12-23T18:24:09.279Z,26.10
2022-12-23T18:26:45.541Z,26.20
2022-12-23T18:29:22.337Z,26.70
2022-12-23T18:31:58.843Z,25.90
2022-12-23T18:34:35.990Z,25.60
2022-12-23T18:37:14.315Z,30.10
2022-12-23T18:39:51.452Z,27.10
2022-12-23T18:42:27.783Z,27.90
2022-12-23T18:45:04.357Z,24.70
2022-12-23T18:47:41.131Z,25.40
2022-12-23T18:50:19.737Z,26.20
2022-12-23T18:52:55.859Z,26.50
2022-12-23T18:55:32.570Z,28.20
2022-12-23T18:58:09.028Z,26.60
2022-12-23T19:00:46.343Z,25.70
2022-12-23T19:03:30.668Z,25.90
2022-12-23T19:06:10.897Z,25.90
2022-12-23T19:08:49.196Z,26.10
2022-12-23T19:11:27.727Z,24.60
2022-12-23T19:14:05.578Z,27.00
2022-12-23T19:16:46.064Z,27.20
2022-12-23T19:19:28.080Z,26.10
2022-12-23T19:22:04.684Z,24.70
2022-12-23T19:24:58.159Z,24.80
2022-12-23T19:27:39.024Z,24.10
2022-12-23T19:30:21.311Z,24.90
2022-12-23T19:32:59.936Z,23.30
2022-12-23T19:35:36.470Z,28.00
2022-12-23T19:38:14.762Z,27.50
2022-12-23T19:41:01.523Z,28.10
2022-12-23T19:43:38.194Z,25.40
2022-12-23T19:46:17.885Z,25.30
2022-12-23T19:48:57.109Z,24.30
2022-12-23T19:51:33.189Z,23.60
2022-12-23T19:54:10.365Z,23.90
2022-12-23T19:56:47.536Z,26.00
2022-12-23T19:59:24.113Z,27.40
2022-12-23T20:02:00.855Z,25.20
2022-12-23T20:04:37.539Z,24.90
2022-12-23T20:07:14.371Z,25.00
2022-12-23T20:09:51.288Z,25.90
2022-12-23T20:12:28.530Z,24.40
2022-12-23T20:15:05.524Z,24.40
2022-12-23T20:17:43.026Z,24.50
2022-12-23T20:20:20.832Z,28.90
2022-12-23T20:22:57.353Z,26.60
2022-12-23T20:25:34.013Z,25.60
2022-12-23T20:28:12.116Z,25.10
2022-12-23T20:30:50.477Z,23.10
2022-12-23T20:33:28.934Z,22.70
2022-12-23T20:36:05.587Z,24.10
2022-12-23T20:38:45.907Z,25.10
2022-12-23T20:41:26.009Z,26.70
2022-12-23T20:44:33.811Z,26.40
2022-12-23T20:46:59.608Z,24.60
2022-12-23T20:49:36.328Z,21.40
2022-12-23T20:52:13.989Z,21.60
2022-12-23T20:54:49.852Z,21.10
2022-12-23T20:57:26.995Z,21.00
2022-12-23T21:00:05.074Z,23.30
2022-12-23T21:02:42.573Z,26.20
2022-12-23T21:05:19.996Z,25.70
2022-12-23T21:07:56.697Z,22.70
2022-12-23T21:10:32.768Z,24.40
2022-12-23T21:13:09.713Z,22.50
2022-12-23T21:15:46.015Z,23.50
2022-12-23T21:18:23.062Z,23.40
2022-12-23T21:21:03.550Z,22.30
2022-12-23T21:23:45.432Z,23.20
2022-12-23T21:26:24.963Z,28.00
2022-12-23T21:29:06.467Z,27.80
2022-12-23T21:31:44.476Z,25.90
2022-12-23T21:34:21.536Z,26.00
2022-12-23T21:36:58.554Z,25.20
2022-12-23T21:39:36.423Z,25.10
2022-12-23T21:42:13.077Z,24.10
2022-12-23T21:44:49.945Z,22.50
2022-12-23T21:47:27.237Z,23.60
2022-12-23T21:50:03.281Z,23.20
2022-12-23T21:52:40.938Z,28.00
2022-12-23T21:55:19.651Z,27.00
2022-12-23T21:57:57.932Z,27.40
2022-12-23T22:00:35.629Z,29.00
2022-12-23T22:03:12.621Z,28.80
2022-12-23T22:05:48.884Z,28.70
2022-12-23T22:08:26.167Z,25.70
2022-12-23T22:11:02.759Z,26.90
2022-12-23T22:13:38.868Z,31.60
2022-12-23T22:16:21.044Z,31.90
2022-12-23T22:18:58.805Z,29.60
2022-12-23T22:21:37.255Z,28.40
2022-12-23T22:24:14.385Z,29.20
2022-12-23T22:26:50.263Z,24.60
2022-12-23T22:29:26.815Z,25.80
2022-12-23T22:32:03.216Z,28.00
2022-12-23T22:34:39.810Z,26.80
2022-12-23T22:37:17.055Z,26.70
2022-12-23T22:39:53.944Z,27.20
2022-12-23T22:42:30.517Z,25.30
2022-12-23T22:45:09.583Z,25.50
2022-12-23T22:47:47.112Z,26.80
2022-12-23T22:50:23.648Z,26.50
2022-12-23T22:53:00.572Z,24.50
2022-12-23T22:55:36.964Z,28.10
2022-12-23T22:58:13.038Z,27.90
2022-12-23T23:00:50.338Z,26.70
2022-12-23T23:03:28.117Z,27.00
2022-12-23T23:06:09.107Z,26.00
2022-12-23T23:08:46.923Z,25.70
2022-12-23T23:11:23.907Z,24.00
2022-12-23T23:14:01.107Z,24.00
2022-12-23T23:16:37.842Z,24.90
2022-12-23T23:19:17.202Z,28.30
2022-12-23T23:21:54.696Z,26.80
2022-12-23T23:24:32.166Z,27.10
2022-12-23T23:27:09.064Z,28.70
2022-12-23T23:29:45.933Z,25.70
2022-12-23T23:32:22.596Z,25.40
2022-12-23T23:35:02.994Z,26.10
2022-12-23T23:37:43.450Z,26.70
2022-12-23T23:40:21.968Z,31.10
2022-12-23T23:42:58.718Z,28.00
2022-12-23T23:45:35.297Z,28.50
2022-12-23T23:48:15.103Z,28.10
2022-12-23T23:50:52.191Z,27.30
2022-12-23T23:53:29.074Z,28.10
2022-12-23T23:56:11.340Z,26.30
2022-12-23T23:58:48.481Z,26.70
